Current Weather

Tokyo Intl

Tokyo Intl, Japan (RJTT)

Report from: Monday, May 23, 2022 4:30 PM JST
Current time: Monday, May 23, 2022 5:15 PM JST

Nearby weather
Weather history
Weather forecast

Temperature21.0°C (69.8°F)
Dew point16.0°C (60.8°F)
Winds 12 kts (6.2 m/s, 13.8 mph) East (90°)
Visibility6.2 mi. (10 km)
Clouds Few clouds 3,000 ft. (914 m)
Ceiling: Broken clouds 6,000 ft. (1,829 m)
Altimeter29.85 in.Hg (1011 mB)
Relative humidity73 %
Density altitude1,027 ft. (313 m)
Remarks No significant changes expected in the next two hours
Flight conditions Visual Meteorological Conditions
Raw dataRJTT 230730Z 09012KT 9999 FEW030 BKN060 21/16 Q1011 NOSIG RMK 1CU030 7CU060 A2987
An error has occurred. This application may no longer respond until reloaded. Reload 🗙